Time;durP1;ratioP1;P1;durP2;ratioP2;P2;SDS_P1;SDS_P2;PMS_P1;PMS_P2;Temp;Humidity;BMP_temperature;BMP_pressure;BME280_temperature;BME280_humidity;BME280_pressure;Samples;Min_cycle;Max_cycle;Signal;HPM_P1;HPM_P2
2021/01/04 00:01:00;;;;;;;1.67;1.58;;;;;;;-1.31;79.66;101856.50;5082602;28;20115;-61
2021/01/04 00:03:54;;;;;;;2.15;1.70;;;;;;;-1.34;79.90;101848.69;5082153;28;20040;-62
2021/01/04 00:06:22;;;;;;;1.73;1.50;;;;;;;-1.35;79.37;101872.41;5082373;28;20039;-61
2021/01/04 00:09:22;;;;;;;2.28;1.40;;;;;;;-1.41;78.60;101836.34;5081284;28;20024;-62
2021/01/04 00:11:56;;;;;;;1.67;1.42;;;;;;;-1.50;77.87;101870.63;5082173;28;20449;-62
2021/01/04 00:14:33;;;;;;;1.95;1.40;;;;;;;-1.58;78.08;101870.94;5082298;28;20111;-62
2021/01/04 00:17:22;;;;;;;1.73;1.27;;;;;;;-1.59;78.01;101872.59;5081948;28;20032;-62
2021/01/04 00:20:16;;;;;;;1.15;0.98;;;;;;;-1.64;77.94;101861.19;5081959;28;20075;-62
2021/01/04 00:22:59;;;;;;;2.15;1.48;;;;;;;-1.66;78.51;101861.09;5081754;28;20041;-63
2021/01/04 00:25:42;;;;;;;1.08;0.90;;;;;;;-1.46;77.29;101863.19;5081794;28;20029;-63
2021/01/04 00:28:15;;;;;;;1.10;0.93;;;;;;;-1.56;77.12;101861.69;5066876;28;20522;-64
2021/01/04 00:30:50;;;;;;;0.90;0.85;;;;;;;-1.68;76.79;101861.81;5104973;28;20024;-62
2021/01/04 00:33:25;;;;;;;1.98;1.15;;;;;;;-1.77;76.57;101851.88;5104783;28;20120;-62
2021/01/04 00:35:56;;;;;;;1.70;1.33;;;;;;;-1.82;76.90;101843.94;5105001;28;20012;-62
2021/01/04 00:38:57;;;;;;;1.42;1.20;;;;;;;-1.76;76.97;101838.38;5104577;28;20052;-62
2021/01/04 00:41:39;;;;;;;1.65;1.08;;;;;;;-1.78;77.20;101847.56;5104790;28;20028;-63
2021/01/04 00:44:08;;;;;;;;;;;;;;;-1.75;77.31;101847.78;5105328;28;20020;-62
2021/01/04 00:46:42;;;;;;;1.80;1.10;;;;;;;-1.78;77.68;101842.47;5103193;28;19908;-62
2021/01/04 00:49:47;;;;;;;2.35;1.20;;;;;;;-1.72;77.76;101847.09;5104330;28;20047;-63
2021/01/04 00:52:44;;;;;;;1.33;1.10;;;;;;;-1.77;77.32;101832.41;5081598;28;20025;-63
2021/01/04 00:55:22;;;;;;;1.85;1.50;;;;;;;-1.75;78.10;101835.94;5072758;28;20064;-62
2021/01/04 00:58:11;;;;;;;2.33;1.30;;;;;;;-1.72;77.96;101832.69;5081254;28;20024;-62
2021/01/04 01:01:10;;;;;;;1.95;1.42;;;;;;;-1.74;77.74;101839.34;5081425;28;20040;-62
2021/01/04 01:03:40;;;;;;;1.58;1.38;;;;;;;-1.75;77.71;101846.13;5064437;28;20031;-62
2021/01/04 01:06:36;;;;;;;1.65;1.30;;;;;;;-1.84;77.62;101839.53;5064538;28;20028;-63
2021/01/04 01:09:03;;;;;;;1.40;0.90;;;;;;;-1.87;76.86;101851.28;5080939;28;20025;-63
2021/01/04 01:11:59;;;;;;;2.28;1.30;;;;;;;-1.89;77.40;101847.78;5081228;28;20024;-63
2021/01/04 01:14:35;;;;;;;1.92;1.30;;;;;;;-1.92;77.48;101847.56;5081325;28;20032;-62
2021/01/04 01:17:31;;;;;;;3.22;1.58;;;;;;;-1.85;77.56;101853.91;5081182;28;20037;-62
2021/01/04 01:20:00;;;;;;;2.13;1.33;;;;;;;-1.86;77.86;101854.72;5080641;28;20111;-63
2021/01/04 01:22:39;;;;;;;1.10;0.90;;;;;;;-1.85;77.67;101853.06;5081201;28;20020;-63
2021/01/04 01:25:15;;;;;;;2.08;1.45;;;;;;;-1.90;77.68;101855.31;5082214;28;20024;-63
2021/01/04 01:28:19;;;;;;;2.00;1.40;;;;;;;-1.83;77.85;101861.66;5103919;28;20056;-64
2021/01/04 01:31:20;;;;;;;1.05;0.93;;;;;;;-1.79;77.55;101853.47;5104109;28;20027;-63
2021/01/04 01:34:08;;;;;;;1.93;1.50;;;;;;;-1.84;76.97;101865.88;5103847;28;20020;-62
2021/01/04 01:37:07;;;;;;;1.70;1.05;;;;;;;-1.86;77.22;101862.34;5104070;28;20268;-62
2021/01/04 01:40:10;;;;;;;1.65;0.90;;;;;;;-1.84;77.12;101860.78;5103200;28;20051;-62
2021/01/04 01:42:52;;;;;;;1.10;1.00;;;;;;;-1.79;76.30;101869.59;5102451;28;20032;-61
2021/01/04 01:45:37;;;;;;;1.98;1.40;;;;;;;-1.84;77.00;101865.88;5103929;28;20118;-61
2021/01/04 01:48:23;;;;;;;1.70;1.30;;;;;;;-1.78;76.80;101875.59;5103289;28;20027;-61
2021/01/04 01:50:56;;;;;;;1.42;1.20;;;;;;;-1.80;76.42;101869.50;5103839;28;20099;-62
2021/01/04 01:53:25;;;;;;;1.60;1.00;;;;;;;-1.80;75.56;101869.50;5103741;28;20026;-62
2021/01/04 01:56:15;;;;;;;1.67;1.20;;;;;;;-1.84;75.83;101870.97;5103814;28;20035;-63
2021/01/04 01:58:54;;;;;;;0.60;0.60;;;;;;;-1.89;76.01;101864.69;5103632;28;20020;-62
2021/01/04 02:01:22;;;;;;;2.13;1.20;;;;;;;-1.86;76.25;101872.53;5103604;28;20052;-62
2021/01/04 02:03:51;;;;;;;1.80;1.10;;;;;;;-1.83;76.43;101867.66;5103524;28;20052;-62
2021/01/04 02:06:33;;;;;;;1.08;0.95;;;;;;;-1.82;76.86;101864.31;5103792;28;20024;-62
2021/01/04 02:09:06;;;;;;;1.20;0.90;;;;;;;-1.85;76.29;101869.19;5103773;28;20024;-62
2021/01/04 02:11:53;;;;;;;2.80;0.90;;;;;;;-1.76;75.44;101881.66;5103645;28;20039;-62
2021/01/04 02:14:25;;;;;;;0.68;0.68;;;;;;;-1.85;75.31;101868.34;5119403;28;20023;-62
2021/01/04 02:17:12;;;;;;;0.93;0.88;;;;;;;-1.91;75.26;101869.69;5103414;28;20042;-63
2021/01/04 02:19:56;;;;;;;1.55;1.00;;;;;;;-1.85;75.16;101871.75;5103352;28;20036;-62
2021/01/04 02:22:44;;;;;;;1.42;1.00;;;;;;;-1.88;75.38;101869.88;5103400;28;20024;-62
2021/01/04 02:25:09;;;;;;;1.05;0.70;;;;;;;-1.91;76.03;101872.22;5103764;28;20103;-62
2021/01/04 02:27:40;;;;;;;1.55;0.98;;;;;;;-1.89;75.83;101872.34;5103473;28;20026;-62
2021/01/04 02:30:06;;;;;;;1.10;1.00;;;;;;;-1.96;75.89;101859.97;5103683;28;20042;-63
2021/01/04 02:32:32;;;;;;;1.20;0.80;;;;;;;-1.92;76.05;101869.59;5105856;28;20050;-63
2021/01/04 02:34:58;;;;;;;1.40;1.00;;;;;;;-1.93;75.91;101870.38;5107037;28;20028;-62
2021/01/04 02:37:25;;;;;;;0.70;0.70;;;;;;;-1.88;76.12;101879.19;5107274;28;20027;-62
2021/01/04 02:39:56;;;;;;;1.42;0.77;;;;;;;-1.90;76.05;101875.66;5107309;28;20083;-63
2021/01/04 02:42:21;;;;;;;1.38;0.68;;;;;;;-1.97;75.92;101874.38;5106996;28;20019;-62
2021/01/04 02:44:47;;;;;;;1.00;0.77;;;;;;;-1.87;75.46;101873.31;5107134;28;20028;-63
2021/01/04 02:47:46;;;;;;;1.08;0.88;;;;;;;-1.91;75.45;101871.34;5106835;28;20512;-62
2021/01/04 02:50:42;;;;;;;0.85;0.80;;;;;;;-1.91;75.44;101884.06;5107144;28;20032;-62
2021/01/04 02:53:34;;;;;;;0.70;0.63;;;;;;;-1.90;75.88;101880.75;5106870;28;20028;-63
2021/01/04 02:56:25;;;;;;;1.20;1.05;;;;;;;-1.96;76.23;101875.22;5107095;28;20049;-62
2021/01/04 02:59:15;;;;;;;1.13;1.00;;;;;;;-1.98;76.66;101872.59;5106779;28;20016;-63
2021/01/04 03:01:44;;;;;;;1.13;0.95;;;;;;;-1.93;76.16;101868.69;5106724;28;20024;-64
2021/01/04 03:04:12;;;;;;;0.82;0.80;;;;;;;-1.96;76.16;101881.22;5106405;28;20410;-63
2021/01/04 03:06:53;;;;;;;0.80;0.80;;;;;;;-1.85;76.03;101884.47;5122418;28;20106;-62
2021/01/04 03:09:18;;;;;;;1.13;1.02;;;;;;;-1.94;75.91;101881.31;5106587;28;20026;-62
2021/01/04 03:11:44;;;;;;;0.63;0.63;;;;;;;-1.94;75.63;101873.69;5106785;28;20076;-62
2021/01/04 03:14:19;;;;;;;1.10;1.00;;;;;;;-1.92;75.66;101882.31;5106585;28;20020;-63
2021/01/04 03:17:24;;;;;;;1.30;1.08;;;;;;;-1.92;75.68;101882.31;5106524;28;20020;-62
2021/01/04 03:19:54;;;;;;;1.83;1.15;;;;;;;-2.01;75.63;101878.38;5094415;28;20043;-63
2021/01/04 03:22:19;;;;;;;1.33;0.95;;;;;;;-1.99;75.82;101878.47;5106279;28;20017;-63
2021/01/04 03:24:49;;;;;;;0.80;0.80;;;;;;;-1.91;75.59;101892.59;5106342;28;20016;-63
2021/01/04 03:27:21;;;;;;;1.75;1.20;;;;;;;-1.97;75.42;101887.09;5122049;28;20027;-63
2021/01/04 03:29:47;;;;;;;;;;;;;;;-1.92;75.37;101872.13;5106862;28;20029;-63
2021/01/04 03:32:12;;;;;;;1.17;0.90;;;;;;;-2.01;75.70;101878.38;5104726;28;19910;-64
2021/01/04 03:34:38;;;;;;;1.00;0.88;;;;;;;-2.04;75.70;101883.25;5105844;28;20024;-63
2021/01/04 03:37:03;;;;;;;2.13;0.98;;;;;;;-2.02;75.86;101885.91;5106169;28;20020;-63
2021/01/04 03:39:29;;;;;;;1.05;0.90;;;;;;;-1.99;76.10;101875.91;5105889;28;20048;-62
2021/01/04 03:41:58;;;;;;;3.70;1.13;;;;;;;-1.98;76.22;101876.81;5105660;28;20032;-63
2021/01/04 03:44:26;;;;;;;1.98;1.30;;;;;;;-1.97;76.16;101876.03;5106051;28;20137;-63
2021/01/04 03:46:52;;;;;;;1.17;0.80;;;;;;;-1.95;76.28;101877.03;5105931;28;20673;-63
2021/01/04 03:49:18;;;;;;;1.30;0.90;;;;;;;-1.88;75.74;101884.28;5105640;28;20032;-63
2021/01/04 03:51:57;;;;;;;1.80;1.20;;;;;;;-1.85;75.63;101881.94;5121547;28;20070;-63
2021/01/04 03:54:24;;;;;;;1.00;0.90;;;;;;;-1.93;75.89;101878.88;5105774;28;20031;-63
2021/01/04 03:56:49;;;;;;;1.55;1.00;;;;;;;-1.87;75.47;101880.97;5105735;28;20058;-63
2021/01/04 03:59:15;;;;;;;1.40;1.00;;;;;;;-1.96;75.46;101854.88;5105598;28;20024;-63
2021/01/04 04:01:47;;;;;;;2.35;1.30;;;;;;;-1.93;75.42;101881.41;5105540;28;20046;-63
2021/01/04 04:04:12;;;;;;;1.38;1.27;;;;;;;-1.89;75.43;101877.41;5105272;28;20476;-63
2021/01/04 04:06:37;;;;;;;0.93;0.90;;;;;;;-1.87;75.47;101888.59;5105731;28;20058;-63
2021/01/04 04:09:03;;;;;;;2.05;1.13;;;;;;;-1.79;74.77;101879.78;5105472;28;20076;-63
2021/01/04 04:11:28;;;;;;;1.63;1.10;;;;;;;-1.86;75.09;101875.09;5105350;28;20375;-62
2021/01/04 04:13:54;;;;;;;1.23;1.08;;;;;;;-1.84;75.36;101875.19;5104059;28;20472;-62
2021/01/04 04:16:19;;;;;;;1.55;1.05;;;;;;;-1.89;75.46;101873.22;5105300;28;20554;-63
2021/01/04 04:18:44;;;;;;;1.30;1.05;;;;;;;-1.79;75.13;101874.69;5104920;28;20020;-63
2021/01/04 04:21:13;;;;;;;2.60;1.20;;;;;;;-1.81;75.31;101883.91;5105308;28;20079;-63
2021/01/04 04:23:38;;;;;;;1.30;0.85;;;;;;;-1.85;75.33;101881.06;5105070;28;20027;-63
2021/01/04 04:26:03;;;;;;;1.70;1.00;;;;;;;-1.86;75.37;101880.16;5105255;28;20107;-63
2021/01/04 04:28:29;;;;;;;1.10;1.00;;;;;;;-1.82;75.30;101887.22;5105030;28;20020;-63
2021/01/04 04:30:54;;;;;;;2.17;1.27;;;;;;;-1.84;75.82;101875.19;5105106;28;20020;-63
2021/01/04 04:33:20;;;;;;;1.05;1.00;;;;;;;-1.79;75.60;101891.66;5104843;28;20016;-63
2021/01/04 04:35:45;;;;;;;1.83;1.15;;;;;;;-1.79;75.18;101879.78;5105183;28;20093;-63
2021/01/04 04:38:10;;;;;;;2.45;1.25;;;;;;;-1.78;75.57;101873.94;5120362;28;20044;-63
2021/01/04 04:40:36;;;;;;;2.13;1.35;;;;;;;-1.70;74.94;101883.72;5105054;28;20046;-63
2021/01/04 04:43:15;;;;;;;1.15;1.00;;;;;;;-1.69;74.95;101895.69;5104604;28;20039;-63
2021/01/04 04:45:42;;;;;;;2.88;1.30;;;;;;;-1.65;74.49;101908.72;5104810;28;20084;-63
2021/01/04 04:48:34;;;;;;;2.55;1.17;;;;;;;-1.64;73.95;101892.66;5104452;28;20058;-63
2021/01/04 04:51:20;;;;;;;2.05;1.73;;;;;;;-1.69;74.32;101895.69;5104788;28;20392;-64
2021/01/04 04:54:23;;;;;;;1.63;1.13;;;;;;;-1.76;74.88;101894.41;5104061;28;20241;-64
2021/01/04 04:57:03;;;;;;;0.70;0.70;;;;;;;-1.66;74.67;101899.31;5120401;28;20027;-63
2021/01/04 04:59:35;;;;;;;2.35;1.23;;;;;;;-1.54;74.05;101914.53;5120423;28;20023;-64
2021/01/04 05:02:17;;;;;;;1.27;1.10;;;;;;;-1.58;73.91;101902.34;5104487;28;20024;-63
2021/01/04 05:04:42;;;;;;;;;;;;;;;-1.40;72.89;101896.69;5120310;28;20028;-64
2021/01/04 05:07:31;;;;;;;;;;;;;;;-1.49;73.40;101902.09;5103473;28;19975;-64
2021/01/04 05:09:59;;;;;;;;;;;;;;;-1.54;73.25;101883.97;5081860;28;19947;-63
2021/01/04 05:12:31;;;;;;;;;;;;;;;-1.59;73.84;101884.44;5081709;28;20148;-63
2021/01/04 05:15:13;;;;;;;;;;;;;;;-1.52;73.67;101887.47;5081773;28;19967;-63
2021/01/04 05:17:47;;;;;;;;;;;;;;;-1.45;73.64;101904.03;5081656;28;19908;-63
2021/01/04 05:20:21;;;;;;;;;;;;;;;-1.47;73.41;101887.78;5081526;28;20321;-63
2021/01/04 05:22:50;;;;;;;;;;;;;;;-1.47;73.57;101887.78;5081552;28;20030;-63
2021/01/04 05:25:15;;;;;;;;;;;;;;;-1.45;73.63;101895.53;5081592;28;19966;-63
2021/01/04 05:27:43;;;;;;;;;;;;;;;-1.43;73.52;101899.03;5081377;28;19908;-63
2021/01/04 05:30:27;;;;;;;;;;;;;;;-1.42;73.59;101899.16;5081688;28;19947;-63
2021/01/04 05:32:52;;;;;;;;;;;;;;;-1.40;73.83;101899.25;5081479;28;19915;-63
2021/01/04 05:35:17;;;;;;;;;;;;;;;-1.37;73.93;101899.44;5081457;28;19972;-63
2021/01/04 05:37:52;;;;;;;;;;;;;;;-1.36;74.07;101903.78;5081369;28;19908;-63
2021/01/04 05:40:26;;;;;;;;;;;;;;;-1.37;73.74;101905.44;5080448;28;19924;-63
2021/01/04 05:43:14;;;;;;;;;;;;;;;-1.29;73.58;101902.47;5080324;28;19942;-63
2021/01/04 05:45:51;;;;;;;;;;;;;;;-1.29;73.61;101899.94;5041199;28;19909;-62
2021/01/04 05:48:35;;;;;;;;;;;;;;;-1.30;73.59;101901.63;5040871;28;19981;-62
2021/01/04 05:51:09;;;;;;;;;;;;;;;-1.27;73.54;101906.91;5041153;28;19905;-62
2021/01/04 05:53:34;;;;;;;;;;;;;;;-1.28;73.38;101900.03;5041319;28;19916;-62
2021/01/04 05:56:00;;;;;;;;;;;;;;;-1.21;72.89;101908.06;5041320;28;19913;-62
2021/01/04 05:58:29;;;;;;;;;;;;;;;-1.22;72.64;101901.22;5040987;28;19947;-61
2021/01/04 06:01:05;;;;;;;;;;;;;;;-1.15;72.07;101916.13;5024480;28;19909;-61
2021/01/04 06:03:30;;;;;;;;;;;;;;;-1.25;72.56;101895.13;5040834;28;19913;-61
2021/01/04 06:06:06;;;;;;;;;;;;;;;-1.20;72.70;101902.22;5043269;28;19909;-62
2021/01/04 06:08:32;;;;;;;;;;;;;;;-1.14;72.57;101905.16;5045225;28;19956;-61
2021/01/04 06:11:13;;;;;;;;;;;;;;;-1.17;72.63;101898.19;5045321;28;20488;-62
2021/01/04 06:13:43;;;;;;;;;;;;;;;-1.18;72.95;101895.56;5045020;28;19951;-62
2021/01/04 06:16:13;;;;;;;;;;;;;;;-1.15;72.75;101898.28;5028412;28;19909;-65
2021/01/04 06:18:42;;;;;;;;;;;;;;;-1.14;72.94;101912.78;5044723;28;19909;-63
2021/01/04 06:21:15;;;;;;;;;;;;;;;-1.12;72.68;101903.59;5045034;28;20095;-63
2021/01/04 06:23:41;;;;;;;;;;;;;;;-1.12;72.85;101898.50;5102413;28;19912;-62
2021/01/04 06:26:20;;;;;;;;;;;;;;;-1.15;72.99;101888.97;5107391;28;19975;-62
2021/01/04 06:28:47;;;;;;;;;;;;;;;-1.16;73.29;101893.97;5107590;28;19915;-62
2021/01/04 06:31:14;;;;;;;;;;;;;;;-1.13;73.56;101899.25;5107967;28;19947;-62
2021/01/04 06:33:40;;;;;;;;;;;;;;;-1.07;73.64;101892.00;5107404;28;19908;-62
2021/01/04 06:36:07;;;;;;;;;;;;;;;-1.07;73.68;101886.91;5107584;28;19947;-62
2021/01/04 06:38:34;;;;;;;;;;;;;;;-1.03;73.67;101890.53;5107506;28;19916;-62
2021/01/04 06:41:10;;;;;;;;;;;;;;;-1.00;73.65;101896.72;5107587;28;19930;-62
2021/01/04 06:43:36;;;;;;;;;;;;;;;-0.93;73.03;101899.66;5107528;28;20003;-62
2021/01/04 06:46:19;;;;;;;;;;;;;;;-1.01;73.10;101894.94;5107450;28;19908;-62
2021/01/04 06:48:45;;;;;;;;;;;;;;;-1.02;73.36;101895.72;5107109;28;20015;-62
2021/01/04 06:51:28;;;;;;;;;;;;;;;-1.00;73.23;101888.19;5107550;28;19916;-63
2021/01/04 06:54:06;;;;;;;;;;;;;;;-0.98;73.32;101890.81;5107348;28;19915;-62
2021/01/04 06:56:38;;;;;;;;;;;;;;;-1.02;73.13;101892.28;5105899;28;20122;-62
2021/01/04 06:59:12;;;;;;;;;;;;;;;-0.98;73.33;101901.03;5107133;28;19995;-62
2021/01/04 07:01:52;;;;;;;;;;;;;;;-0.98;73.32;101890.81;5107100;28;19939;-62
2021/01/04 07:04:23;;;;;;;;;;;;;;;-0.92;72.84;101898.84;5106939;28;19912;-62
2021/01/04 07:07:07;;;;;;;;;;;;;;;-0.97;73.20;101895.13;5107317;28;19979;-62
2021/01/04 07:09:51;;;;;;;;;;;;;;;-0.99;72.85;101897.56;5107014;28;19915;-61
2021/01/04 07:12:18;;;;;;;;;;;;;;;-0.94;72.86;101906.41;5106814;28;20006;-61
2021/01/04 07:14:54;;;;;;;;;;;;;;;-0.94;73.14;101915.75;5106970;28;19915;-61
2021/01/04 07:17:31;;;;;;;;;;;;;;;-0.90;73.06;101915.13;5106006;28;19970;-61
2021/01/04 07:20:15;;;;;;;;;;;;;;;-0.88;73.25;101916.13;5106693;28;19908;-61
2021/01/04 07:22:56;;;;;;;;;;;;;;;-0.86;72.67;101914.53;5106696;28;20272;-61
2021/01/04 07:25:33;;;;;;;;;;;;;;;-0.86;72.68;101911.97;5106793;28;19908;-61
2021/01/04 07:28:01;;;;;;;;;;;;;;;-0.82;72.84;101916.50;5106402;28;19971;-61
2021/01/04 07:30:49;;;;;;;;;;;;;;;-0.84;72.71;101910.44;5106706;28;19908;-61
2021/01/04 07:33:30;;;;;;;;;;;;;;;-0.76;72.88;101913.44;5099066;28;19908;-61
2021/01/04 07:36:00;;;;;;;;;;;;;;;-0.77;72.96;101924.44;5106615;28;19913;-61
2021/01/04 07:38:32;;;;;;;;;;;;;;;-0.75;72.48;101908.44;5106417;28;20552;-61
2021/01/04 07:41:06;;;;;;;;;;;;;;;-0.76;72.44;101910.91;5106448;28;20024;-61
2021/01/04 07:43:31;;;;;;;;;;;;;;;-0.76;72.95;101906.69;5106183;28;19946;-61
2021/01/04 07:46:02;;;;;;;;;;;;;;;-0.74;72.68;101904.25;5106227;28;19912;-62
2021/01/04 07:48:27;;;;;;;;;;;;;;;-0.71;72.96;101908.63;5105978;28;20364;-62
2021/01/04 07:50:52;;;;;;;;;;;;;;;-0.69;73.11;101907.06;5106330;28;19904;-63
2021/01/04 07:53:21;;;;;;;;;;;;;;;-0.68;73.08;101907.16;5104721;28;19908;-62
2021/01/04 07:55:46;;;;;;;;;;;;;;;-0.63;73.14;101905.78;5106379;28;19908;-62
2021/01/04 07:58:11;;;;;;;;;;;;;;;-0.60;73.32;101901.66;5105974;28;19915;-62
2021/01/04 08:00:39;;;;;;;;;;;;;;;-0.56;73.18;101906.16;5106155;28;19916;-62
2021/01/04 08:03:23;;;;;;;;;;;;;;;-0.57;72.91;101902.72;5105746;28;19962;-62
2021/01/04 08:05:48;;;;;;;;;;;;;;;-0.54;72.55;101908.00;5106078;28;19911;-62
2021/01/04 08:08:29;;;;;;;;;;;;;;;-0.54;72.69;101914.78;5105651;28;19947;-62
2021/01/04 08:11:13;;;;;;;;;;;;;;;-0.56;72.66;101907.03;5105727;28;19908;-64
2021/01/04 08:13:54;;;;;;;;;;;;;;;-0.57;72.08;101901.81;5103507;28;19908;-62
2021/01/04 08:16:21;;;;;;;;;;;;;;;-0.58;72.02;101906.06;5104201;28;19986;-62
2021/01/04 08:18:49;;;;;;;;;;;;;;;-0.55;72.17;101903.72;5104301;28;19968;-62
2021/01/04 08:21:30;;;;;;;;;;;;;;;-0.58;72.11;101900.97;5105623;28;19908;-62
2021/01/04 08:24:04;;;;;;;;;;;;;;;-0.51;71.92;101900.53;5105263;28;19912;-62
2021/01/04 08:26:32;;;;;;;;;;;;;;;-0.54;71.75;101907.13;5105511;28;19947;-62
2021/01/04 08:29:03;;;;;;;;;;;;;;;-0.48;71.14;101901.53;5102737;28;19934;-62
2021/01/04 08:31:37;;;;;;;;;;;;;;;-0.52;71.43;101898.78;5105433;28;19908;-63
2021/01/04 08:34:05;;;;;;;;;;;;;;;-0.50;71.10;101904.84;5104325;28;19984;-62
2021/01/04 08:36:45;;;;;;;;;;;;;;;-0.45;70.82;101906.81;5104774;28;19908;-61
2021/01/04 08:39:10;;;;;;;;;;;;;;;-0.51;70.97;101910.75;5105144;28;20411;-62
2021/01/04 08:41:36;;;;;;;;;;;;;;;-0.50;71.20;101904.84;5105318;28;19908;-62
2021/01/04 08:44:10;;;;;;;;;;;;;;;-0.42;70.88;101912.09;5105309;28;19947;-63
2021/01/04 08:46:36;;;;;;;;;;;;;;;-0.42;70.92;101917.22;5105177;28;19908;-62
2021/01/04 08:49:21;;;;;;;;;;;;;;;-0.41;71.19;101908.75;5104682;28;20402;-61
2021/01/04 08:51:47;;;;;;;;;;;;;;;-0.41;71.09;101907.09;5104816;28;19908;-62
2021/01/04 08:54:13;;;;;;;;;;;;;;;-0.40;71.16;101910.53;5105005;28;19908;-66
2021/01/04 08:56:40;;;;;;;;;;;;;;;-0.39;71.30;101908.09;5105040;28;20264;-61
2021/01/04 08:59:08;;;;;;;;;;;;;;;-0.33;71.30;101910.13;5104802;28;19908;-61
2021/01/04 09:01:35;;;;;;;;;;;;;;;-0.32;71.17;101908.47;5103436;28;19939;-62
2021/01/04 09:04:08;;;;;;;;;;;;;;;-0.31;71.55;101922.97;5104717;28;19952;-63
2021/01/04 09:06:36;;;;;;;;;;;;;;;-0.27;71.45;101915.59;5104661;28;19908;-62
2021/01/04 09:09:13;;;;;;;;;;;;;;;-0.23;71.76;101913.22;5104601;28;19908;-61
2021/01/04 09:11:56;;;;;;;;;;;;;;;-0.20;71.51;101914.31;5104809;28;19908;-61
2021/01/04 09:14:26;;;;;;;;;;;;;;;-0.17;71.00;101908.47;5104916;28;19940;-61
2021/01/04 09:16:52;;;;;;;;;;;;;;;-0.19;71.01;101910.09;5104482;28;19908;-61
2021/01/04 09:19:21;;;;;;;;;;;;;;;-0.25;70.72;101915.69;5104263;28;19912;-61
2021/01/04 09:21:46;;;;;;;;;;;;;;;-0.22;70.94;101915.00;5104502;28;19912;-62
2021/01/04 09:24:38;;;;;;;;;;;;;;;-0.17;71.17;101908.47;5103219;28;19919;-62
2021/01/04 09:27:13;;;;;;;;;;;;;;;-0.09;71.64;101899.63;5103229;28;19919;-62
2021/01/04 09:29:46;;;;;;;;;;;;;;;-0.09;71.54;101911.50;5104617;28;19908;-65
2021/01/04 09:32:13;;;;;;;;;;;;;;;-0.07;71.09;101894.59;5104654;28;19908;-62
2021/01/04 09:34:38;;;;;;;;;;;;;;;-0.03;69.92;101902.53;5104318;28;19908;-61
2021/01/04 09:37:05;;;;;;;;;;;;;;;-0.14;70.22;101899.34;5104391;28;19919;-61
2021/01/04 09:39:32;;;;;;;;;;;;;;;-0.11;70.43;101903.75;5103398;28;19968;-60
2021/01/04 09:41:59;;;;;;;;;;;;;;;-0.14;70.84;101894.25;5103112;28;19941;-62
2021/01/04 09:44:24;;;;;;;;;;;;;;;-0.12;70.88;101889.22;5104051;28;19911;-61
2021/01/04 09:46:52;;;;;;;;;;;;;;;-0.12;70.58;101886.66;5104281;28;19961;-61
2021/01/04 09:49:31;;;;;;;;;;;;;;;-0.10;70.84;101892.75;5104018;28;19912;-62
2021/01/04 09:52:17;;;;;;;;;;;;;;;-0.11;71.29;101890.97;5103097;28;19908;-63
2021/01/04 09:54:46;;;;;;;;;;;;;;;-0.06;71.65;101884.47;5104251;28;19908;-62
2021/01/04 09:57:17;;;;;;;;;;;;;;;-0.02;71.80;101886.41;5104286;28;19908;-62
2021/01/04 09:59:43;;;;;;;;;;;;;;;-0.04;71.09;101887.13;5104228;28;19908;-63
2021/01/04 10:02:28;;;;;;;;;;;;;;;-0.05;71.30;101887.94;5104086;28;19919;-61
2021/01/04 10:05:02;;;;;;;;;;;;;;;-0.06;71.58;101883.59;5103526;28;19915;-61
2021/01/04 10:07:28;;;;;;;;;;;;;;;-0.05;71.71;101883.69;5104195;28;19912;-62
2021/01/04 10:09:54;;;;;;;;;;;;;;;-0.02;71.62;101880.44;5104392;28;19908;-62
2021/01/04 10:12:23;;;;;;;;;;;;;;;0.03;71.77;101885.81;5103946;28;20401;-60
2021/01/04 10:14:51;;;;;;;;;;;;;;;0.03;72.06;101888.38;5104040;28;20306;-62
2021/01/04 10:17:19;;;;;;;;;;;;;;;0.05;71.49;101884.25;5104093;28;19951;-62
2021/01/04 10:19:53;;;;;;;;;;;;;;;0.03;71.56;101891.81;5103684;28;19908;-62
2021/01/04 10:22:40;;;;;;;;;;;;;;;-0.02;72.00;101883.84;5104336;28;19916;-62
2021/01/04 10:25:16;;;;;;;;;;;;;;;0.08;71.79;101892.09;5102647;28;19915;-64
2021/01/04 10:27:42;;;;;;;;;;;;;;;0.09;71.99;101891.28;5103583;28;19961;-62
2021/01/04 10:30:07;;;;;;;;;;;;;;;0.11;71.58;101889.72;5103996;28;20334;-63
2021/01/04 10:32:35;;;;;;;;;;;;;;;0.12;72.16;101899.13;5103843;28;19915;-63
2021/01/04 10:35:01;;;;;;;;;;;;;;;0.11;72.38;101897.38;5103805;28;19975;-61
2021/01/04 10:37:41;;;;;;;;;;;;;;;0.11;72.46;101892.25;5103811;28;19931;-62
2021/01/04 10:40:11;;;;;;;;;;;;;;;0.15;72.49;101891.63;5103838;28;19954;-62
2021/01/04 10:42:38;;;;;;;;;;;;;;;0.14;72.72;101892.44;5103826;28;19912;-61
2021/01/04 10:45:09;;;;;;;;;;;;;;;0.17;73.00;101892.63;5103904;28;19908;-63
2021/01/04 10:47:38;;;;;;;;;;;;;;;0.17;73.16;101890.06;5103653;28;19939;-62
2021/01/04 10:50:08;;;;;;;;;;;;;;;0.21;73.06;101881.78;5103585;28;19908;-63
2021/01/04 10:52:33;;;;;;;;;;;;;;;0.19;73.02;101885.91;5104707;28;20001;-61
2021/01/04 10:54:58;;;;;;;;;;;;;;;0.15;73.16;101894.19;5107236;28;19999;-61
2021/01/04 10:57:41;;;;;;;;;;;;;;;0.12;73.13;101896.56;5105923;28;19908;-62
2021/01/04 11:00:12;;;;;;;;;;;;;;;0.10;73.21;101899.03;5107436;28;19951;-61
2021/01/04 11:02:41;;;;;;;;;;;;;;;0.15;72.87;101890.75;5107075;28;19987;-63
2021/01/04 11:05:07;;;;;;;;;;;;;;;0.07;73.39;101892.84;5107085;28;19981;-62
2021/01/04 11:07:33;;;;;;;;;;;;;;;0.08;73.71;101892.09;5107390;28;19907;-61
2021/01/04 11:10:17;;;;;;;;;;;;;;;0.11;73.73;101890.56;5107196;28;19944;-62
2021/01/04 11:12:46;;;;;;;;;;;;;;;0.11;73.94;101885.47;5107139;28;19931;-62
2021/01/04 11:15:20;;;;;;;;;;;;;;;0.15;74.10;101894.19;5106956;28;19914;-61
2021/01/04 11:17:55;;;;;;;;;;;;;;;0.13;73.78;101889.81;5106714;28;19908;-62
2021/01/04 11:20:20;;;;;;;;;;;;;;;0.12;73.86;101883.81;5106875;28;19912;-62
2021/01/04 11:22:45;;;;;;;;;;;;;;;0.11;74.21;101884.59;5106665;28;19919;-62
2021/01/04 11:25:11;;;;;;;;;;;;;;;0.14;74.20;101884.78;5105343;28;19912;-61
2021/01/04 11:27:37;;;;;;;;;;;;;;;0.15;74.24;101883.97;5105437;28;19915;-62
2021/01/04 11:30:03;;;;;;;;;;;;;;;0.16;74.47;101882.31;5106693;28;19908;-60
2021/01/04 11:32:28;;;;;;;;;;;;;;;0.24;74.09;101879.41;5106450;28;19934;-62
2021/01/04 11:34:55;;;;;;;;;;;;;;;0.21;74.17;101880.88;5105055;28;19931;-62
2021/01/04 11:37:22;;;;;;;;;;;;;;;0.18;74.25;101871.38;5106724;28;19937;-62
2021/01/04 11:39:47;;;;;;;;;;;;;;;0.14;74.62;101866.91;5106221;28;19916;-64
2021/01/04 11:42:13;;;;;;;;;;;;;;;0.23;74.99;101857.22;5106456;28;19919;-61
2021/01/04 11:44:38;;;;;;;;;;;;;;;0.30;75.26;101855.91;5106430;28;19962;-62
2021/01/04 11:47:04;;;;;;;;;;;;;;;0.31;74.84;101844.00;5106379;28;19915;-61
2021/01/04 11:49:29;;;;;;;;;;;;;;;0.31;74.24;101861.88;5105955;28;19908;-61
2021/01/04 11:51:55;;;;;;;;;;;;;;;0.29;74.46;101863.47;5105035;28;19908;-61
2021/01/04 11:54:21;;;;;;;;;;;;;;;0.24;74.64;101855.53;5106378;28;19908;-61
2021/01/04 11:56:47;;;;;;;;;;;;;;;0.26;74.68;101847.97;5106395;28;19912;-62
2021/01/04 11:59:13;;;;;;;;;;;;;;;0.28;75.17;101846.38;5106171;28;19934;-61
2021/01/04 12:01:38;;;;;;;;;;;;;;;0.29;74.82;101853.25;5106020;28;19908;-62
2021/01/04 12:04:04;;;;;;;;;;;;;;;0.28;75.16;101847.25;5105575;28;19978;-61
2021/01/04 12:06:29;;;;;;;;;;;;;;;0.32;75.06;101845.78;5105999;28;20395;-61
2021/01/04 12:08:54;;;;;;;;;;;;;;;0.36;75.18;101850.25;5106031;28;19915;-61
2021/01/04 12:11:21;;;;;;;;;;;;;;;0.33;75.00;101847.53;5106078;28;19915;-62
2021/01/04 12:13:47;;;;;;;;;;;;;;;0.31;75.11;101849.09;5105886;28;19970;-62
2021/01/04 12:16:12;;;;;;;;;;;;;;;0.34;75.16;101834.84;5105911;28;19915;-61
2021/01/04 12:18:37;;;;;;;;;;;;;;;0.28;74.73;101846.38;5105548;28;19938;-62
2021/01/04 12:21:03;;;;;;;;;;;;;;;0.23;74.67;101844.44;5105839;28;19907;-63
2021/01/04 12:23:28;;;;;;;;;;;;;;;0.15;74.67;101835.44;5105598;28;19934;-61
2021/01/04 12:25:53;;;;;;;;;;;;;;;0.13;74.99;101829.38;5105779;28;20300;-62
2021/01/04 12:28:18;;;;;;;;;;;;;;;0.09;74.79;101838.53;5105551;28;19915;-61
2021/01/04 12:30:44;;;;;;;;;;;;;;;0.10;75.11;101834.28;5104372;28;20183;-61
2021/01/04 12:33:09;;;;;;;;;;;;;;;0.18;75.12;101838.19;5105434;28;19914;-61
2021/01/04 12:35:34;;;;;;;;;;;;;;;0.18;74.89;101824.53;5105212;28;19908;-61
2021/01/04 12:38:00;;;;;;;;;;;;;;;0.17;74.50;101833.88;5105357;28;19907;-62